Time;durP1;ratioP1;P1;durP2;ratioP2;P2;SDS_P1;SDS_P2;PMS_P1;PMS_P2;Temp;Humidity;BMP_temperature;BMP_pressure;BME280_temperature;BME280_humidity;BME280_pressure;Samples;Min_cycle;Max_cycle;Signal;HPM_P1;HPM_P2
2021/06/24 00:01:07;;;;;;;8.37;5.13;;;;;;;14.28;87.62;101795.81;4971120;28;20053;-72
2021/06/24 00:03:34;;;;;;;;;;;;;;;14.29;86.13;101797.50;4972284;28;20391;-72
2021/06/24 00:06:00;;;;;;;10.48;5.03;;;;;;;14.26;85.74;101798.69;4971303;28;19918;-72
2021/06/24 00:08:26;;;;;;;6.57;4.85;;;;;;;14.28;84.63;101799.38;4971797;28;20073;-72
2021/06/24 00:10:53;;;;;;;12.05;5.63;;;;;;;14.18;84.87;101811.22;4970694;28;20310;-72
2021/06/24 00:13:20;;;;;;;12.18;5.50;;;;;;;14.21;85.21;101817.13;4971690;28;20050;-73
2021/06/24 00:15:46;;;;;;;13.80;5.55;;;;;;;14.20;84.44;101826.16;4970820;28;20069;-72
2021/06/24 00:18:11;;;;;;;14.20;6.05;;;;;;;14.17;84.38;101837.25;4971402;28;20428;-72
2021/06/24 00:20:38;;;;;;;19.23;6.47;;;;;;;14.14;84.37;101830.34;4971678;28;20038;-72
2021/06/24 00:23:05;;;;;;;8.68;4.72;;;;;;;14.17;84.79;101826.50;4971593;28;20112;-72
2021/06/24 00:25:30;;;;;;;12.10;5.50;;;;;;;14.21;83.96;101817.13;4970736;28;20042;-72
2021/06/24 00:27:56;;;;;;;12.55;5.75;;;;;;;14.17;84.76;101821.13;4971262;28;20116;-72
2021/06/24 00:30:22;;;;;;;11.30;6.25;;;;;;;14.13;83.53;101822.44;4971512;28;20038;-72
2021/06/24 00:32:48;;;;;;;15.50;6.90;;;;;;;14.14;84.37;101826.81;4954158;28;20511;-72
2021/06/24 00:35:14;;;;;;;13.07;5.93;;;;;;;14.20;84.57;101825.34;4971391;28;20039;-72
2021/06/24 00:37:40;;;;;;;11.77;5.65;;;;;;;14.11;84.22;101819.91;4971088;28;20035;-72
2021/06/24 00:40:07;;;;;;;;;;;;;;;14.11;84.20;101827.97;4971754;28;20108;-72
2021/06/24 00:42:33;;;;;;;16.05;6.55;;;;;;;14.07;83.56;101806.97;4970179;28;19914;-72
2021/06/24 00:44:59;;;;;;;17.45;6.50;;;;;;;14.10;84.29;101795.91;4970243;28;20088;-72
2021/06/24 00:47:24;;;;;;;14.00;6.37;;;;;;;14.02;83.97;101795.88;4970897;28;20415;-72
2021/06/24 00:49:50;;;;;;;22.55;7.53;;;;;;;13.89;83.97;101805.19;4970242;28;20034;-72
2021/06/24 00:52:16;;;;;;;11.50;6.05;;;;;;;13.93;84.04;101833.41;4970171;28;20039;-72
2021/06/24 00:54:42;;;;;;;13.15;6.53;;;;;;;14.08;83.38;101824.78;4970272;28;20030;-73
2021/06/24 00:57:08;;;;;;;18.52;7.20;;;;;;;14.11;84.22;101811.00;4970793;28;20046;-72
2021/06/24 00:59:35;;;;;;;16.00;7.18;;;;;;;14.04;84.57;101810.81;4971095;28;20594;-72
2021/06/24 01:02:01;;;;;;;13.15;6.45;;;;;;;13.89;84.58;101831.19;4969954;28;20041;-72
2021/06/24 01:04:26;;;;;;;10.88;6.85;;;;;;;13.98;85.36;101841.00;4970089;28;20035;-72
2021/06/24 01:06:55;;;;;;;12.77;6.85;;;;;;;14.00;85.18;101838.13;4954141;28;20046;-72
2021/06/24 01:09:23;;;;;;;10.90;5.85;;;;;;;14.05;85.79;101827.78;4969963;28;20059;-72
2021/06/24 01:11:49;;;;;;;13.93;6.32;;;;;;;14.13;85.49;101828.66;4969764;28;20438;-72
2021/06/24 01:14:15;;;;;;;;;;;;;;;14.07;84.52;101825.75;4970265;28;20066;-72
2021/06/24 01:16:41;;;;;;;9.07;6.72;;;;;;;14.08;85.16;101827.47;4969761;28;20331;-72
2021/06/24 01:19:07;;;;;;;17.13;6.82;;;;;;;14.03;85.49;101832.47;4970703;28;20081;-72
2021/06/24 01:21:33;;;;;;;10.07;5.85;;;;;;;14.09;85.50;101826.44;4969689;28;20031;-72
2021/06/24 01:24:00;;;;;;;11.38;6.13;;;;;;;14.06;84.22;101829.44;4970638;28;20091;-72
2021/06/24 01:26:26;;;;;;;10.00;6.70;;;;;;;13.89;85.28;101829.34;4969459;28;20107;-72
2021/06/24 01:28:52;;;;;;;13.48;6.57;;;;;;;13.84;85.78;101836.22;4953705;28;20035;-72
2021/06/24 01:31:20;;;;;;;15.65;6.18;;;;;;;13.93;86.04;101844.16;4969415;28;20049;-72
2021/06/24 01:33:46;;;;;;;10.88;6.45;;;;;;;14.03;85.94;101832.47;4969559;28;20031;-72
2021/06/24 01:36:13;;;;;;;17.63;7.47;;;;;;;14.02;85.60;101828.09;4970198;28;20057;-72
2021/06/24 01:38:44;;;;;;;9.55;6.30;;;;;;;14.03;85.78;101829.78;4970568;28;20035;-72
2021/06/24 01:41:22;;;;;;;15.18;7.45;;;;;;;13.97;85.15;101830.41;4970283;28;20298;-72
2021/06/24 01:43:49;;;;;;;22.55;8.40;;;;;;;13.97;84.36;101825.03;4969245;28;20030;-72
2021/06/24 01:46:14;;;;;;;16.80;8.25;;;;;;;14.01;84.25;101810.31;4970047;28;20397;-72
2021/06/24 01:48:40;;;;;;;18.08;8.15;;;;;;;13.97;85.50;101812.44;4969438;28;20084;-72
2021/06/24 01:51:07;;;;;;;12.50;7.43;;;;;;;13.83;85.21;101810.34;4953315;28;20041;-72
2021/06/24 01:53:32;;;;;;;16.97;7.37;;;;;;;13.83;85.16;101813.88;4970341;28;20039;-72
2021/06/24 01:56:01;;;;;;;12.05;7.47;;;;;;;13.88;86.34;101808.03;4968891;28;20468;-72
2021/06/24 01:58:27;;;;;;;17.40;8.32;;;;;;;13.87;85.78;101812.56;4969168;28;20031;-72
2021/06/24 02:01:13;;;;;;;21.30;9.05;;;;;;;13.88;85.03;101825.00;4955824;28;20041;-72
2021/06/24 02:03:45;;;;;;;21.98;9.23;;;;;;;13.89;84.68;101821.31;4969343;28;20039;-72
2021/06/24 02:06:11;;;;;;;22.33;9.32;;;;;;;13.86;84.96;101818.06;4969836;28;20043;-72
2021/06/24 02:08:38;;;;;;;19.75;9.13;;;;;;;13.82;85.75;101820.25;4968961;28;20049;-72
2021/06/24 02:11:31;;;;;;;15.02;9.23;;;;;;;13.84;85.08;101804.84;4968978;28;20035;-72
2021/06/24 02:14:01;;;;;;;16.65;8.32;;;;;;;13.86;84.99;101812.72;4969085;28;20041;-72
2021/06/24 02:16:27;;;;;;;14.15;8.55;;;;;;;13.84;84.19;101815.56;4968821;28;20035;-72
2021/06/24 02:18:52;;;;;;;19.80;8.97;;;;;;;13.84;84.67;101817.41;4969897;28;20060;-72
2021/06/24 02:21:28;;;;;;;20.73;8.70;;;;;;;13.80;85.07;101816.03;4969029;28;20372;-72
2021/06/24 02:23:58;;;;;;;13.40;8.75;;;;;;;13.70;85.66;101810.78;4968817;28;20942;-72
2021/06/24 02:26:25;;;;;;;14.57;8.63;;;;;;;13.72;85.16;101800.72;4969507;28;20117;-72
2021/06/24 02:28:58;;;;;;;20.42;9.75;;;;;;;13.77;85.36;101795.72;4967754;28;20560;-72
2021/06/24 02:31:27;;;;;;;16.65;8.80;;;;;;;13.79;86.98;101790.19;4969599;28;20042;-72
2021/06/24 02:33:55;;;;;;;18.85;9.48;;;;;;;13.81;86.02;101783.66;4968687;28;20046;-72
2021/06/24 02:36:33;;;;;;;14.98;9.57;;;;;;;13.78;86.64;101783.16;4954057;28;20600;-72
2021/06/24 02:39:00;;;;;;;12.52;9.40;;;;;;;13.76;86.15;101771.72;4968720;28;20041;-72
2021/06/24 02:41:25;;;;;;;14.20;9.40;;;;;;;13.83;86.21;101773.59;4968684;28;20030;-72
2021/06/24 02:43:51;;;;;;;16.75;10.05;;;;;;;13.81;85.92;101772.09;4968716;28;20049;-72
2021/06/24 02:46:17;;;;;;;12.00;9.27;;;;;;;13.76;86.74;101772.56;4969185;28;20038;-72
2021/06/24 02:48:49;;;;;;;15.27;8.55;;;;;;;13.73;86.82;101762.97;4968654;28;20129;-72
2021/06/24 02:51:19;;;;;;;17.45;8.98;;;;;;;13.70;86.50;101762.47;4968468;28;20035;-72
2021/06/24 02:54:04;;;;;;;15.38;8.95;;;;;;;13.66;85.67;101771.84;4969515;28;20482;-72
2021/06/24 02:56:38;;;;;;;19.35;8.80;;;;;;;13.67;85.26;101765.44;4968159;28;20031;-72
2021/06/24 02:59:06;;;;;;;15.45;7.80;;;;;;;13.66;85.27;101771.84;4968442;28;20126;-72
2021/06/24 03:01:38;;;;;;;13.73;7.43;;;;;;;13.66;84.64;101766.47;4969468;28;20535;-72
2021/06/24 03:04:24;;;;;;;20.38;8.18;;;;;;;13.70;84.91;101770.53;4969691;28;20066;-72
2021/06/24 03:06:50;;;;;;;15.40;8.20;;;;;;;13.62;84.28;101779.34;4968100;28;20030;-72
2021/06/24 03:09:16;;;;;;;13.40;7.18;;;;;;;13.63;84.10;101786.41;4969142;28;20716;-72
2021/06/24 03:11:43;;;;;;;15.30;7.22;;;;;;;13.68;84.38;101783.25;4968178;28;20045;-72
2021/06/24 03:14:09;;;;;;;13.45;7.10;;;;;;;13.70;84.62;101781.25;4968395;28;20045;-72
2021/06/24 03:16:41;;;;;;;15.70;8.18;;;;;;;13.63;84.60;101781.03;4968088;28;20034;-72
2021/06/24 03:19:08;;;;;;;14.18;8.55;;;;;;;13.63;84.87;101775.69;4968282;28;20034;-72
2021/06/24 03:21:36;;;;;;;21.67;8.68;;;;;;;13.62;84.92;101775.81;4967962;28;20031;-73
2021/06/24 03:24:02;;;;;;;12.27;7.03;;;;;;;13.70;84.21;101773.22;4968106;28;20041;-72
2021/06/24 03:26:30;;;;;;;12.82;7.05;;;;;;;13.68;83.90;101783.25;4967788;28;20372;-72
2021/06/24 03:29:14;;;;;;;16.23;7.80;;;;;;;13.58;83.97;101777.13;4968208;28;20380;-72
2021/06/24 03:31:46;;;;;;;21.40;8.65;;;;;;;13.61;84.42;101771.47;4968086;28;20039;-72
2021/06/24 03:34:14;;;;;;;13.52;8.07;;;;;;;13.67;83.35;101769.00;4968868;28;20472;-72
2021/06/24 03:36:40;;;;;;;11.30;7.75;;;;;;;13.61;84.05;101763.41;4951768;28;20039;-72
2021/06/24 03:39:06;;;;;;;17.20;8.45;;;;;;;13.56;84.37;101763.06;4968521;28;20054;-72
2021/06/24 03:41:36;;;;;;;13.45;7.60;;;;;;;13.64;85.30;101749.69;4971145;28;20114;-73
2021/06/24 03:44:02;;;;;;;13.68;7.65;;;;;;;13.69;85.13;101752.72;4971276;28;20083;-72
2021/06/24 03:46:28;;;;;;;23.15;7.90;;;;;;;13.65;84.73;101749.53;4970820;28;20541;-72
2021/06/24 03:48:55;;;;;;;14.95;7.75;;;;;;;13.71;84.26;101756.09;4955294;28;20038;-72
2021/06/24 03:51:22;;;;;;;14.20;7.90;;;;;;;13.70;84.19;101754.44;4971060;28;20043;-72
2021/06/24 03:53:55;;;;;;;16.65;8.23;;;;;;;13.69;83.80;101753.56;4971199;28;20033;-72
2021/06/24 03:56:20;;;;;;;15.20;8.43;;;;;;;13.77;84.46;101760.00;4954792;28;20046;-72
2021/06/24 03:58:49;;;;;;;15.38;7.55;;;;;;;13.78;84.00;101761.69;4971911;28;20038;-72
2021/06/24 04:01:14;;;;;;;11.95;7.38;;;;;;;13.67;84.08;101763.63;4970828;28;20460;-72
2021/06/24 04:03:40;;;;;;;16.47;8.30;;;;;;;13.72;83.78;101764.00;4970939;28;20050;-72
2021/06/24 04:06:12;;;;;;;16.55;7.93;;;;;;;13.78;83.60;101773.25;4971841;28;20068;-72
2021/06/24 04:08:37;;;;;;;12.95;8.00;;;;;;;13.86;83.89;101773.31;4971790;28;20034;-72
2021/06/24 04:11:12;;;;;;;15.52;8.60;;;;;;;13.85;83.54;101774.28;4971683;28;20364;-72
2021/06/24 04:13:41;;;;;;;11.70;7.22;;;;;;;13.84;83.22;101779.84;4970585;28;20084;-72
2021/06/24 04:16:27;;;;;;;12.98;8.48;;;;;;;13.80;83.58;101775.78;4971432;28;20368;-73
2021/06/24 04:18:52;;;;;;;12.97;7.87;;;;;;;13.81;82.49;101775.59;4970843;28;20035;-73
2021/06/24 04:21:18;;;;;;;14.67;8.30;;;;;;;13.84;82.95;101775.31;4970595;28;20035;-73
2021/06/24 04:23:43;;;;;;;12.67;7.07;;;;;;;13.77;82.56;101786.84;4971548;28;20368;-73
2021/06/24 04:26:11;;;;;;;23.98;8.73;;;;;;;13.82;82.72;101779.16;4970266;28;20066;-73
2021/06/24 04:28:37;;;;;;;17.87;8.57;;;;;;;13.85;82.59;101776.97;4971574;28;20412;-73
2021/06/24 04:31:07;;;;;;;12.80;8.32;;;;;;;13.80;83.00;101776.63;4971417;28;20281;-72
2021/06/24 04:33:34;;;;;;;13.13;7.63;;;;;;;13.79;83.09;101771.41;4970461;28;20030;-72
2021/06/24 04:36:26;;;;;;;16.80;7.82;;;;;;;13.76;82.61;101780.59;4975535;28;20168;-72
2021/06/24 04:39:02;;;;;;;16.77;8.57;;;;;;;13.68;83.04;101772.53;4970493;28;20452;-73
2021/06/24 04:41:27;;;;;;;13.88;8.13;;;;;;;13.76;83.41;101777.09;4970297;28;20035;-72
2021/06/24 04:43:57;;;;;;;21.58;8.95;;;;;;;13.76;83.22;101775.25;4971285;28;20039;-72
2021/06/24 04:46:23;;;;;;;11.43;8.65;;;;;;;13.83;82.66;101778.97;4970086;28;20035;-73
2021/06/24 04:48:49;;;;;;;16.87;8.03;;;;;;;13.77;82.59;101787.69;4970345;28;20371;-72
2021/06/24 04:51:40;;;;;;;12.02;7.53;;;;;;;13.80;83.09;101791.88;5000442;28;20057;-72
2021/06/24 04:54:07;;;;;;;16.70;8.55;;;;;;;13.79;83.58;101787.50;4970234;28;20126;-72
2021/06/24 04:56:36;;;;;;;21.58;8.50;;;;;;;13.81;83.62;101778.28;4970868;28;20030;-73
2021/06/24 04:59:03;;;;;;;15.60;8.37;;;;;;;13.93;84.16;101778.88;4971132;28;20049;-72
2021/06/24 05:01:38;;;;;;;17.70;8.75;;;;;;;13.87;82.83;101776.81;4970226;28;20114;-72
2021/06/24 05:04:35;;;;;;;13.38;7.95;;;;;;;13.92;83.49;101786.06;4970874;28;20046;-73
2021/06/24 05:07:03;;;;;;;18.37;9.80;;;;;;;13.83;83.25;101784.34;4970612;28;20039;-72
2021/06/24 05:09:31;;;;;;;13.65;7.47;;;;;;;13.88;83.18;101776.69;4970823;28;20050;-73
2021/06/24 05:11:57;;;;;;;14.63;7.65;;;;;;;13.89;82.41;101775.66;4969699;28;20031;-72
2021/06/24 05:14:22;;;;;;;11.97;7.93;;;;;;;13.96;83.32;101775.03;4969918;28;20105;-73
2021/06/24 05:16:48;;;;;;;15.77;8.45;;;;;;;14.02;82.03;101774.38;4970534;28;20844;-72
2021/06/24 05:19:14;;;;;;;24.00;8.57;;;;;;;13.96;82.53;101766.97;4969809;28;20361;-73
2021/06/24 05:21:39;;;;;;;22.60;9.43;;;;;;;14.15;82.92;101769.41;4969629;28;20034;-72
2021/06/24 05:24:05;;;;;;;15.70;9.52;;;;;;;14.23;81.87;101769.44;4969763;28;20550;-72
2021/06/24 05:26:31;;;;;;;17.48;9.95;;;;;;;14.34;81.34;101774.53;4969299;28;20038;-72
2021/06/24 05:28:56;;;;;;;16.33;9.43;;;;;;;14.38;82.24;101775.06;4970639;28;20030;-73
2021/06/24 05:31:22;;;;;;;16.47;7.83;;;;;;;14.48;82.31;101769.53;4969528;28;20290;-73
2021/06/24 05:33:47;;;;;;;13.32;8.50;;;;;;;14.41;81.34;101763.13;4970433;28;20055;-73
2021/06/24 05:36:13;;;;;;;13.60;8.83;;;;;;;14.51;81.41;101766.53;4970114;28;20042;-73
2021/06/24 05:38:38;;;;;;;16.53;8.97;;;;;;;14.43;80.41;101769.19;4969549;28;20054;-73
2021/06/24 05:41:03;;;;;;;24.53;9.43;;;;;;;14.36;81.72;101761.78;4970325;28;20042;-73
2021/06/24 05:43:29;;;;;;;15.60;8.37;;;;;;;14.43;81.37;101767.34;4970421;28;20043;-73
2021/06/24 05:45:54;;;;;;;17.87;9.80;;;;;;;14.41;80.28;101758.59;4969227;28;20038;-73
2021/06/24 05:48:19;;;;;;;11.37;8.57;;;;;;;14.55;80.84;101754.47;4953396;28;20034;-73
2021/06/24 05:50:45;;;;;;;12.07;8.83;;;;;;;14.54;81.12;101742.91;4970362;28;20474;-73
2021/06/24 05:53:10;;;;;;;12.23;8.63;;;;;;;14.76;80.50;101754.84;4970218;28;20043;-73
2021/06/24 05:55:51;;;;;;;11.77;8.17;;;;;;;14.86;81.18;101754.69;4970183;28;20035;-73
2021/06/24 05:58:19;;;;;;;20.33;9.90;;;;;;;14.85;79.13;101754.88;4970136;28;20448;-73
2021/06/24 06:00:45;;;;;;;16.25;11.07;;;;;;;14.93;79.90;101760.25;4953201;28;20031;-73
2021/06/24 06:03:11;;;;;;;14.63;9.30;;;;;;;15.00;80.33;101753.19;4969072;28;20052;-73
2021/06/24 06:05:36;;;;;;;17.43;9.97;;;;;;;15.19;80.18;101752.03;4970097;28;20027;-73
2021/06/24 06:08:04;;;;;;;18.77;10.40;;;;;;;15.24;79.73;101754.22;4952792;28;20042;-73
2021/06/24 06:10:31;;;;;;;15.65;9.13;;;;;;;15.30;79.33;101740.94;4968989;28;20047;-73
2021/06/24 06:12:56;;;;;;;20.27;9.23;;;;;;;15.39;78.72;101752.53;4969933;28;20038;-73
2021/06/24 06:15:22;;;;;;;23.00;9.97;;;;;;;15.36;79.00;101751.03;4968971;28;20041;-73
2021/06/24 06:17:48;;;;;;;13.93;9.73;;;;;;;15.46;78.54;101758.91;4969633;28;20117;-72
2021/06/24 06:20:13;;;;;;;16.20;10.43;;;;;;;15.50;78.04;101764.78;4969832;28;20088;-72
2021/06/24 06:22:39;;;;;;;22.07;10.43;;;;;;;15.50;77.38;101770.16;4969842;28;20333;-73
2021/06/24 06:25:05;;;;;;;20.17;10.43;;;;;;;15.52;78.17;101762.75;4968836;28;20053;-73
2021/06/24 06:27:30;;;;;;;15.50;9.52;;;;;;;15.65;77.95;101762.25;4952531;28;20042;-73
2021/06/24 06:29:56;;;;;;;18.53;10.87;;;;;;;15.51;78.13;101755.72;4969829;28;20110;-73
2021/06/24 06:32:22;;;;;;;11.30;9.43;;;;;;;15.63;78.43;101749.78;4969664;28;20031;-73
2021/06/24 06:34:47;;;;;;;14.38;10.02;;;;;;;15.82;78.32;101763.91;4968844;28;20039;-72
2021/06/24 06:37:13;;;;;;;11.57;9.07;;;;;;;15.93;77.93;101763.56;4969499;28;20092;-73
2021/06/24 06:39:38;;;;;;;13.20;8.97;;;;;;;16.05;77.13;101758.63;4969491;28;20294;-73
2021/06/24 06:42:03;;;;;;;12.90;9.63;;;;;;;15.99;77.34;101752.09;4969608;28;20120;-73
2021/06/24 06:44:29;;;;;;;17.27;8.93;;;;;;;16.13;76.69;101760.44;4969652;28;20054;-73
2021/06/24 06:46:54;;;;;;;21.70;10.87;;;;;;;16.14;76.79;101756.75;4969314;28;20045;-73
2021/06/24 06:49:19;;;;;;;21.70;10.33;;;;;;;16.17;76.11;101751.00;4969500;28;20122;-73
2021/06/24 06:51:45;;;;;;;15.37;8.80;;;;;;;16.28;76.48;101741.72;4968526;28;20027;-73
2021/06/24 06:54:10;;;;;;;16.30;9.77;;;;;;;16.38;76.42;101742.31;4969386;28;20353;-73
2021/06/24 06:56:36;;;;;;;14.47;9.67;;;;;;;16.37;76.26;101744.19;4969151;28;20043;-73
2021/06/24 06:59:04;;;;;;;20.20;10.70;;;;;;;16.53;76.14;101745.97;4952432;28;20030;-73
2021/06/24 07:01:30;;;;;;;13.77;10.05;;;;;;;16.64;76.00;101747.41;4969434;28;20538;-74
2021/06/24 07:03:55;;;;;;;16.60;9.73;;;;;;;16.77;75.13;101747.66;4968384;28;20038;-73
2021/06/24 07:06:21;;;;;;;12.47;10.13;;;;;;;16.83;73.30;101744.28;4969080;28;20364;-73
2021/06/24 07:08:46;;;;;;;15.95;9.25;;;;;;;17.00;72.84;101744.16;4968275;28;20376;-73
2021/06/24 07:11:12;;;;;;;14.90;11.33;;;;;;;17.11;73.43;101746.41;4969282;28;20042;-73
2021/06/24 07:13:38;;;;;;;12.73;9.43;;;;;;;17.32;73.13;101739.50;4969293;28;20376;-73
2021/06/24 07:16:03;;;;;;;16.30;9.13;;;;;;;17.66;71.84;101745.22;4972285;28;20051;-74
2021/06/24 07:18:29;;;;;;;13.50;8.32;;;;;;;17.94;70.38;101739.22;4972585;28;20043;-73
2021/06/24 07:20:54;;;;;;;18.00;8.13;;;;;;;18.44;68.52;101736.72;4972590;28;20039;-73
2021/06/24 07:23:20;;;;;;;15.13;9.27;;;;;;;19.04;66.59;101740.91;4955323;28;20022;-73
2021/06/24 07:25:46;;;;;;;15.05;8.93;;;;;;;19.65;64.37;101742.22;4972492;28;20042;-73
2021/06/24 07:28:11;;;;;;;12.23;7.50;;;;;;;20.10;61.66;101737.28;4972224;28;20059;-74
2021/06/24 07:30:37;;;;;;;13.40;8.67;;;;;;;20.63;60.89;101741.03;4972437;28;20375;-74
2021/06/24 07:33:03;;;;;;;13.13;8.75;;;;;;;21.05;59.13;101744.44;4955210;28;20463;-73
2021/06/24 07:35:28;;;;;;;15.43;8.23;;;;;;;20.21;58.93;101742.97;4972335;28;20053;-74
2021/06/24 07:37:53;;;;;;;12.47;7.30;;;;;;;20.09;61.85;101747.28;4971910;28;20049;-74
2021/06/24 07:40:19;;;;;;;15.27;7.53;;;;;;;20.08;60.45;101742.88;4972308;28;20035;-73
2021/06/24 07:42:44;;;;;;;12.07;6.40;;;;;;;20.01;59.63;101742.84;4955129;28;20452;-74
2021/06/24 07:45:10;;;;;;;10.80;8.45;;;;;;;18.92;62.56;101747.88;4972202;28;20471;-74
2021/06/24 07:47:36;;;;;;;18.40;7.78;;;;;;;18.97;63.62;101750.84;4970957;28;20085;-74
2021/06/24 07:50:01;;;;;;;11.63;6.77;;;;;;;18.69;65.31;101738.03;4971308;28;20023;-74
2021/06/24 07:52:27;;;;;;;12.05;8.18;;;;;;;18.81;64.16;101746.50;4971873;28;20035;-74
2021/06/24 07:54:52;;;;;;;16.80;8.70;;;;;;;18.86;63.83;101735.09;4972098;28;20035;-74
2021/06/24 07:57:18;;;;;;;15.10;8.03;;;;;;;18.71;65.42;101735.97;4954795;28;20456;-74
2021/06/24 07:59:44;;;;;;;17.40;8.07;;;;;;;17.89;66.58;101737.06;4971933;28;20046;-74
2021/06/24 08:02:09;;;;;;;10.43;7.27;;;;;;;18.25;65.73;101733.56;4971885;28;20096;-74
2021/06/24 08:04:34;;;;;;;10.87;6.83;;;;;;;18.65;63.86;101731.31;4971004;28;20039;-74
2021/06/24 08:07:01;;;;;;;19.00;7.53;;;;;;;18.58;65.29;101732.28;4971519;28;20438;-74
2021/06/24 08:09:26;;;;;;;16.60;8.13;;;;;;;18.45;66.04;101728.41;4971744;28;20030;-74
2021/06/24 08:11:52;;;;;;;17.47;8.20;;;;;;;18.62;67.77;101730.88;4970745;28;20039;-74
2021/06/24 08:14:18;;;;;;;18.27;7.87;;;;;;;18.48;66.74;101728.03;4954776;28;20073;-74
2021/06/24 08:16:44;;;;;;;8.52;6.70;;;;;;;18.79;64.30;101726.09;4971517;28;20061;-73
2021/06/24 08:19:09;;;;;;;8.83;5.53;;;;;;;19.24;63.13;101724.00;4954744;28;20034;-74
2021/06/24 08:21:35;;;;;;;11.00;5.90;;;;;;;19.19;62.62;101717.28;4970615;28;20043;-73
2021/06/24 08:24:00;;;;;;;8.83;5.83;;;;;;;19.14;62.92;101708.09;4954667;28;20035;-74
2021/06/24 08:26:25;;;;;;;8.03;4.97;;;;;;;19.25;62.07;101704.03;4970370;28;20042;-73
2021/06/24 08:28:51;;;;;;;6.70;5.70;;;;;;;19.05;62.81;101704.69;4971192;28;20058;-74
2021/06/24 08:31:17;;;;;;;9.70;5.40;;;;;;;19.42;61.80;101704.56;4954109;28;20431;-73
2021/06/24 08:33:42;;;;;;;14.18;6.22;;;;;;;19.44;61.11;101702.50;4970171;28;20056;-74
2021/06/24 08:36:08;;;;;;;12.53;5.93;;;;;;;19.76;61.63;101698.31;4969826;28;20092;-73
2021/06/24 08:38:33;;;;;;;9.43;6.32;;;;;;;19.86;59.99;101695.28;4970367;28;20066;-74
2021/06/24 08:40:59;;;;;;;8.53;6.50;;;;;;;19.85;60.74;101691.69;4970177;28;20116;-74
2021/06/24 08:43:25;;;;;;;7.95;5.85;;;;;;;20.58;58.47;101693.84;4970372;28;20043;-74
2021/06/24 08:45:56;;;;;;;9.10;5.68;;;;;;;20.50;59.51;101691.31;4970110;28;20046;-74
2021/06/24 08:48:25;;;;;;;10.68;6.00;;;;;;;20.71;58.01;101690.34;4970260;28;20088;-74
2021/06/24 08:50:50;;;;;;;9.85;4.55;;;;;;;21.11;55.94;101685.75;4970150;28;20031;-74
2021/06/24 08:53:20;;;;;;;9.93;4.37;;;;;;;21.37;55.77;101684.88;4971147;28;20023;-74
2021/06/24 08:55:51;;;;;;;11.48;6.40;;;;;;;21.79;53.73;101682.72;4970173;28;20030;-74
2021/06/24 08:58:16;;;;;;;9.35;6.43;;;;;;;21.89;52.96;101674.97;4970117;28;20057;-74
2021/06/24 09:00:42;;;;;;;9.93;5.77;;;;;;;22.07;54.96;101671.53;4970081;28;20463;-74
2021/06/24 09:03:29;;;;;;;8.85;5.85;;;;;;;22.16;54.33;101677.56;4969906;28;20030;-73
2021/06/24 09:06:08;;;;;;;9.40;4.88;;;;;;;23.18;49.31;101672.09;4969712;28;20039;-74
2021/06/24 09:09:03;;;;;;;8.80;5.28;;;;;;;23.13;51.42;101675.47;4969992;28;20065;-74
2021/06/24 09:11:28;;;;;;;7.55;5.28;;;;;;;23.59;47.64;101673.31;4953740;28;20138;-72
2021/06/24 09:14:15;;;;;;;10.27;5.45;;;;;;;23.90;48.48;101669.63;4969586;28;20078;-72
2021/06/24 09:16:43;;;;;;;9.77;5.68;;;;;;;23.31;50.27;101671.13;4970216;28;20372;-72
2021/06/24 09:19:14;;;;;;;6.38;5.63;;;;;;;22.71;49.76;101669.72;4970684;28;20125;-72
2021/06/24 09:21:40;;;;;;;9.38;5.18;;;;;;;23.75;49.09;101671.94;4969663;28;20446;-74
2021/06/24 09:24:20;;;;;;;6.57;3.80;;;;;;;24.24;42.98;101667.31;4969649;28;20129;-72
2021/06/24 09:26:46;;;;;;;13.55;5.18;;;;;;;23.97;45.02;101675.00;4969485;28;20039;-72
2021/06/24 09:29:16;;;;;;;8.37;4.50;;;;;;;22.41;48.42;101671.41;4970638;28;20355;-74
2021/06/24 09:31:43;;;;;;;6.63;3.63;;;;;;;21.68;48.64;101675.22;4969565;28;20374;-73
2021/06/24 09:34:11;;;;;;;6.50;4.03;;;;;;;21.02;48.68;101673.44;4969569;28;20047;-74
2021/06/24 09:36:41;;;;;;;4.60;3.13;;;;;;;20.64;49.10;101672.16;4969632;28;20039;-74
2021/06/24 09:39:29;;;;;;;6.07;2.70;;;;;;;20.34;52.18;101677.06;4970516;28;20121;-74
2021/06/24 09:42:02;;;;;;;9.13;3.17;;;;;;;20.69;51.06;101684.28;4970269;28;20031;-74
2021/06/24 09:44:29;;;;;;;4.22;2.58;;;;;;;20.51;52.25;101676.69;4969463;28;20034;-74
2021/06/24 09:46:55;;;;;;;6.30;3.50;;;;;;;20.10;52.88;101672.22;4969931;28;20049;-73
2021/06/24 09:49:39;;;;;;;7.22;4.25;;;;;;;20.06;56.49;101674.47;4969360;28;20038;-74
2021/06/24 09:52:05;;;;;;;8.25;4.03;;;;;;;19.77;55.35;101683.75;4970266;28;20074;-74
2021/06/24 09:54:37;;;;;;;5.15;3.47;;;;;;;20.21;55.86;101675.19;4969489;28;20087;-73
2021/06/24 09:57:04;;;;;;;8.32;3.92;;;;;;;20.00;53.27;101673.44;4969122;28;20057;-74
2021/06/24 09:59:42;;;;;;;4.85;3.30;;;;;;;19.65;53.25;101671.78;4969120;28;20445;-73
2021/06/24 10:02:12;;;;;;;5.53;3.47;;;;;;;19.77;54.63;101681.88;4969340;28;20495;-74
2021/06/24 10:04:40;;;;;;;4.05;2.60;;;;;;;19.63;50.58;101684.69;4969272;28;20081;-73
2021/06/24 10:07:09;;;;;;;6.82;2.33;;;;;;;19.57;54.42;101680.88;4969811;28;20045;-74
2021/06/24 10:09:35;;;;;;;2.70;2.10;;;;;;;19.49;52.14;101672.94;4970030;28;20475;-74
2021/06/24 10:12:00;;;;;;;3.47;2.63;;;;;;;19.50;51.82;101675.47;4969839;28;20031;-74
2021/06/24 10:14:27;;;;;;;4.67;3.10;;;;;;;19.34;52.58;101686.59;4969943;28;20593;-73
2021/06/24 10:16:58;;;;;;;5.00;2.50;;;;;;;19.25;55.24;101682.38;4969629;28;20819;-73
2021/06/24 10:19:28;;;;;;;4.60;2.90;;;;;;;19.23;54.55;101685.25;4952939;28;20195;-73
2021/06/24 10:21:58;;;;;;;6.25;3.17;;;;;;;18.98;54.71;101679.44;4968880;28;20043;-73
2021/06/24 10:24:31;;;;;;;5.45;3.30;;;;;;;18.82;56.24;101682.41;4968912;28;20414;-73
2021/06/24 10:26:58;;;;;;;6.20;2.95;;;;;;;19.16;58.53;101684.38;4969595;28;20074;-73
2021/06/24 10:29:23;;;;;;;6.68;3.45;;;;;;;19.02;55.61;101675.31;4968812;28;20476;-73
2021/06/24 10:31:55;;;;;;;7.67;3.17;;;;;;;18.93;55.86;101674.59;4968864;28;20027;-73
2021/06/24 10:34:21;;;;;;;6.18;3.20;;;;;;;19.00;55.27;101676.53;4952686;28;20035;-73
2021/06/24 10:37:09;;;;;;;5.45;2.97;;;;;;;19.09;56.10;101675.38;4969512;28;20042;-74
2021/06/24 10:39:36;;;;;;;4.38;2.92;;;;;;;19.25;55.87;101672.38;4969674;28;20039;-74
2021/06/24 10:42:06;;;;;;;6.28;3.42;;;;;;;19.24;57.45;101670.69;4969586;28;20046;-74
2021/06/24 10:44:43;;;;;;;4.63;3.15;;;;;;;19.22;57.97;101661.91;4968600;28;20061;-74
2021/06/24 10:47:09;;;;;;;6.07;3.15;;;;;;;19.09;56.05;101665.38;4969325;28;20042;-74
2021/06/24 10:49:35;;;;;;;5.38;2.95;;;;;;;19.27;56.85;101661.31;4953660;28;20038;-74
2021/06/24 10:52:27;;;;;;;4.23;3.27;;;;;;;19.56;57.79;101665.69;4971959;28;20364;-73
2021/06/24 10:54:52;;;;;;;6.07;3.10;;;;;;;19.89;55.26;101656.91;4971736;28;20031;-73
2021/06/24 10:57:34;;;;;;;6.55;3.70;;;;;;;19.61;53.48;101658.63;4972727;28;20608;-73
2021/06/24 11:00:37;;;;;;;6.75;3.35;;;;;;;20.22;54.67;101649.72;4971821;28;20092;-74
2021/06/24 11:03:05;;;;;;;5.13;3.00;;;;;;;20.66;51.93;101653.81;4972840;28;20637;-73
2021/06/24 11:05:37;;;;;;;8.52;3.30;;;;;;;21.02;52.57;101649.00;4955782;28;20039;-74
2021/06/24 11:08:32;;;;;;;8.23;3.33;;;;;;;21.15;52.53;101640.03;4971598;28;20043;-74
2021/06/24 11:10:58;;;;;;;5.43;4.20;;;;;;;20.62;51.71;101633.53;4988851;28;20061;-74
2021/06/24 11:13:39;;;;;;;6.20;3.20;;;;;;;20.80;52.07;101638.38;4955567;28;20471;-74
2021/06/24 11:16:06;;;;;;;7.93;4.15;;;;;;;21.52;49.27;101638.50;4955347;28;20045;-73
2021/06/24 11:18:31;;;;;;;6.05;3.50;;;;;;;21.22;48.49;101641.69;4955642;28;20066;-74
2021/06/24 11:21:01;;;;;;;6.63;3.27;;;;;;;20.85;50.81;101635.84;4955405;28;20160;-74
2021/06/24 11:23:26;;;;;;;5.75;3.20;;;;;;;21.39;49.60;101633.91;4955456;28;20026;-74
2021/06/24 11:26:06;;;;;;;9.90;3.80;;;;;;;21.71;50.33;101632.16;4972279;28;20114;-74